sensor_id;sensor_type;location;lat;lon;timestamp;pressure;altitude;pressure_sealevel;temperature;humidity
250;BME280;109;19.806;-70.704;2024-03-22T00:02:09;101487.06;;;27.15;45.74
250;BME280;109;19.806;-70.704;2024-03-22T00:04:36;101488.78;;;26.78;45.97
250;BME280;109;19.806;-70.704;2024-03-22T00:07:03;101491.78;;;27.26;45.34
250;BME280;109;19.806;-70.704;2024-03-22T00:09:29;101503.72;;;27.60;45.59
250;BME280;109;19.806;-70.704;2024-03-22T00:11:56;101498.00;;;27.77;45.65
250;BME280;109;19.806;-70.704;2024-03-22T00:14:23;101502.09;;;27.58;45.23
250;BME280;109;19.806;-70.704;2024-03-22T00:16:49;101496.81;;;26.53;46.90
250;BME280;109;19.806;-70.704;2024-03-22T00:19:16;101501.84;;;26.32;49.29
250;BME280;109;19.806;-70.704;2024-03-22T00:21:42;101500.25;;;26.01;50.68
250;BME280;109;19.806;-70.704;2024-03-22T00:24:09;101503.88;;;26.14;50.43
250;BME280;109;19.806;-70.704;2024-03-22T00:26:35;101508.41;;;26.14;50.39
250;BME280;109;19.806;-70.704;2024-03-22T00:29:02;101513.41;;;25.36;52.10
250;BME280;109;19.806;-70.704;2024-03-22T00:31:28;101508.59;;;25.27;51.74
250;BME280;109;19.806;-70.704;2024-03-22T00:33:55;101508.13;;;25.49;51.52
250;BME280;109;19.806;-70.704;2024-03-22T00:36:21;101506.44;;;25.04;52.54
250;BME280;109;19.806;-70.704;2024-03-22T00:38:47;101515.06;;;24.95;52.77
250;BME280;109;19.806;-70.704;2024-03-22T00:41:14;101521.50;;;25.36;52.66
250;BME280;109;19.806;-70.704;2024-03-22T00:43:40;101530.59;;;25.20;52.89
250;BME280;109;19.806;-70.704;2024-03-22T00:46:07;101523.63;;;24.87;52.29
250;BME280;109;19.806;-70.704;2024-03-22T00:48:33;101526.94;;;24.31;52.97
250;BME280;109;19.806;-70.704;2024-03-22T00:51:01;101531.97;;;24.53;52.71
250;BME280;109;19.806;-70.704;2024-03-22T00:53:28;101541.63;;;24.87;52.53
250;BME280;109;19.806;-70.704;2024-03-22T00:55:55;101543.59;;;24.99;51.39
250;BME280;109;19.806;-70.704;2024-03-22T00:58:22;101545.03;;;25.63;50.88
250;BME280;109;19.806;-70.704;2024-03-22T01:00:48;101559.97;;;24.80;51.72
250;BME280;109;19.806;-70.704;2024-03-22T01:03:15;101567.84;;;24.99;51.73
250;BME280;109;19.806;-70.704;2024-03-22T01:05:41;101568.16;;;25.38;51.85
250;BME280;109;19.806;-70.704;2024-03-22T01:08:08;101564.31;;;25.13;51.53
250;BME280;109;19.806;-70.704;2024-03-22T01:10:35;101566.03;;;25.29;51.07
250;BME280;109;19.806;-70.704;2024-03-22T01:13:01;101570.44;;;25.44;51.14
250;BME280;109;19.806;-70.704;2024-03-22T01:15:28;101557.38;;;25.81;50.82
250;BME280;109;19.806;-70.704;2024-03-22T01:17:55;101562.84;;;25.51;51.39
250;BME280;109;19.806;-70.704;2024-03-22T01:20:46;101561.25;;;25.77;51.01
250;BME280;109;19.806;-70.704;2024-03-22T01:23:37;101558.78;;;26.01;51.21
250;BME280;109;19.806;-70.704;2024-03-22T01:26:29;101566.19;;;25.26;52.24
250;BME280;109;19.806;-70.704;2024-03-22T01:29:20;101578.28;;;25.05;52.83
250;BME280;109;19.806;-70.704;2024-03-22T01:32:12;101601.88;;;25.31;52.63
250;BME280;109;19.806;-70.704;2024-03-22T01:35:03;101599.34;;;25.28;52.05
250;BME280;109;19.806;-70.704;2024-03-22T01:37:55;101605.16;;;25.51;51.72
250;BME280;109;19.806;-70.704;2024-03-22T01:40:46;101600.72;;;25.50;51.76
250;BME280;109;19.806;-70.704;2024-03-22T01:43:38;101596.47;;;25.45;51.00
250;BME280;109;19.806;-70.704;2024-03-22T10:37:13;101489.13;;;25.51;50.51
250;BME280;109;19.806;-70.704;2024-03-22T10:39:42;101496.00;;;25.56;50.49
250;BME280;109;19.806;-70.704;2024-03-22T10:42:11;101497.22;;;25.51;50.57
250;BME280;109;19.806;-70.704;2024-03-22T10:44:38;101504.72;;;25.60;51.04
250;BME280;109;19.806;-70.704;2024-03-22T10:47:05;101497.56;;;25.73;50.51
250;BME280;109;19.806;-70.704;2024-03-22T10:49:37;101504.63;;;25.61;50.59
250;BME280;109;19.806;-70.704;2024-03-22T10:52:07;101496.28;;;25.52;50.82
250;BME280;109;19.806;-70.704;2024-03-22T10:54:40;101505.13;;;25.54;50.79
250;BME280;109;19.806;-70.704;2024-03-22T10:57:14;101518.13;;;25.61;50.73
250;BME280;109;19.806;-70.704;2024-03-22T10:59:42;101517.25;;;25.61;50.98
250;BME280;109;19.806;-70.704;2024-03-22T11:02:11;101517.06;;;25.64;50.29
250;BME280;109;19.806;-70.704;2024-03-22T11:04:37;101521.88;;;25.59;50.28
250;BME280;109;19.806;-70.704;2024-03-22T11:07:04;101514.75;;;25.58;50.22
250;BME280;109;19.806;-70.704;2024-03-22T11:09:31;101519.50;;;25.68;50.47
250;BME280;109;19.806;-70.704;2024-03-22T11:11:57;101520.44;;;25.67;50.16
250;BME280;109;19.806;-70.704;2024-03-22T11:14:25;101523.91;;;25.69;50.07
250;BME280;109;19.806;-70.704;2024-03-22T11:16:52;101532.13;;;25.68;50.22
250;BME280;109;19.806;-70.704;2024-03-22T11:19:21;101521.88;;;25.59;51.00
250;BME280;109;19.806;-70.704;2024-03-22T11:21:48;101518.63;;;25.68;50.36
250;BME280;109;19.806;-70.704;2024-03-22T11:24:15;101522.69;;;25.75;50.83
250;BME280;109;19.806;-70.704;2024-03-22T11:26:42;101521.78;;;25.89;50.70
250;BME280;109;19.806;-70.704;2024-03-22T11:29:10;101533.06;;;25.95;50.89
250;BME280;109;19.806;-70.704;2024-03-22T11:31:36;101529.88;;;25.89;50.89
250;BME280;109;19.806;-70.704;2024-03-22T11:34:03;101531.34;;;25.94;51.02
250;BME280;109;19.806;-70.704;2024-03-22T11:36:30;101535.00;;;25.93;50.89
250;BME280;109;19.806;-70.704;2024-03-22T11:39:04;101530.94;;;25.86;50.72
250;BME280;109;19.806;-70.704;2024-03-22T11:41:31;101533.25;;;25.92;51.28
250;BME280;109;19.806;-70.704;2024-03-22T11:43:58;101536.13;;;26.03;50.61
250;BME280;109;19.806;-70.704;2024-03-22T11:46:27;101536.03;;;26.05;50.34
250;BME280;109;19.806;-70.704;2024-03-22T11:48:54;101530.78;;;25.75;50.42
250;BME280;109;19.806;-70.704;2024-03-22T11:51:21;101535.28;;;25.89;50.45
250;BME280;109;19.806;-70.704;2024-03-22T11:53:53;101552.94;;;25.80;50.75
250;BME280;109;19.806;-70.704;2024-03-22T11:56:24;101550.91;;;25.55;51.05
250;BME280;109;19.806;-70.704;2024-03-22T11:58:58;101550.34;;;25.78;50.79
250;BME280;109;19.806;-70.704;2024-03-22T12:01:25;101559.28;;;25.93;50.77
250;BME280;109;19.806;-70.704;2024-03-22T12:03:53;101551.75;;;25.98;50.55
250;BME280;109;19.806;-70.704;2024-03-22T12:06:20;101549.03;;;26.12;50.24
250;BME280;109;19.806;-70.704;2024-03-22T12:08:47;101551.09;;;26.36;50.43
250;BME280;109;19.806;-70.704;2024-03-22T12:11:14;101555.03;;;26.44;49.93
250;BME280;109;19.806;-70.704;2024-03-22T12:13:40;101557.75;;;26.44;50.36
250;BME280;109;19.806;-70.704;2024-03-22T12:16:07;101563.16;;;26.71;49.88
250;BME280;109;19.806;-70.704;2024-03-22T12:18:33;101558.13;;;26.65;49.43
250;BME280;109;19.806;-70.704;2024-03-22T12:21:00;101569.34;;;26.73;50.11
250;BME280;109;19.806;-70.704;2024-03-22T12:23:28;101567.19;;;26.78;49.51
250;BME280;109;19.806;-70.704;2024-03-22T12:25:54;101568.06;;;26.92;49.41
250;BME280;109;19.806;-70.704;2024-03-22T12:28:22;101579.13;;;27.14;48.96
250;BME280;109;19.806;-70.704;2024-03-22T12:30:49;101579.19;;;27.39;48.94
250;BME280;109;19.806;-70.704;2024-03-22T12:33:16;101579.84;;;27.43;49.10
250;BME280;109;19.806;-70.704;2024-03-22T12:35:43;101587.84;;;27.44;49.05
250;BME280;109;19.806;-70.704;2024-03-22T12:38:09;101582.53;;;27.55;48.85
250;BME280;109;19.806;-70.704;2024-03-22T12:40:40;101586.22;;;27.42;48.04
250;BME280;109;19.806;-70.704;2024-03-22T12:43:09;101579.75;;;27.70;48.39
250;BME280;109;19.806;-70.704;2024-03-22T12:45:37;101582.13;;;27.62;48.54
250;BME280;109;19.806;-70.704;2024-03-22T12:48:04;101581.34;;;27.60;49.06
250;BME280;109;19.806;-70.704;2024-03-22T12:50:31;101603.44;;;27.53;48.57
250;BME280;109;19.806;-70.704;2024-03-22T12:52:57;101600.09;;;27.25;48.12
250;BME280;109;19.806;-70.704;2024-03-22T12:55:24;101609.50;;;27.32;48.23
250;BME280;109;19.806;-70.704;2024-03-22T12:57:51;101603.22;;;27.31;48.22
250;BME280;109;19.806;-70.704;2024-03-22T13:00:18;101605.59;;;27.23;48.26
250;BME280;109;19.806;-70.704;2024-03-22T13:02:45;101614.81;;;26.94;47.81
250;BME280;109;19.806;-70.704;2024-03-22T13:05:13;101619.78;;;26.87;48.47
250;BME280;109;19.806;-70.704;2024-03-22T13:07:39;101637.06;;;26.84;48.84
250;BME280;109;19.806;-70.704;2024-03-22T13:10:06;101626.78;;;26.90;48.57
250;BME280;109;19.806;-70.704;2024-03-22T13:12:33;101628.53;;;26.91;48.53
250;BME280;109;19.806;-70.704;2024-03-22T13:15:01;101637.13;;;26.56;48.03
250;BME280;109;19.806;-70.704;2024-03-22T13:17:27;101638.09;;;26.55;48.26
250;BME280;109;19.806;-70.704;2024-03-22T13:19:54;101639.47;;;26.48;48.89
250;BME280;109;19.806;-70.704;2024-03-22T13:22:20;101662.00;;;26.34;49.06
250;BME280;109;19.806;-70.704;2024-03-22T13:24:47;101650.22;;;26.21;48.98
250;BME280;109;19.806;-70.704;2024-03-22T13:27:16;101658.41;;;26.20;49.60
250;BME280;109;19.806;-70.704;2024-03-22T13:29:43;101667.84;;;26.12;49.65
250;BME280;109;19.806;-70.704;2024-03-22T13:32:09;101668.16;;;26.08;49.72
250;BME280;109;19.806;-70.704;2024-03-22T13:34:37;101680.59;;;25.96;50.00
250;BME280;109;19.806;-70.704;2024-03-22T13:37:04;101680.81;;;25.63;50.41
250;BME280;109;19.806;-70.704;2024-03-22T13:39:32;101684.53;;;25.46;50.87
250;BME280;109;19.806;-70.704;2024-03-22T13:41:58;101681.66;;;25.50;50.76
250;BME280;109;19.806;-70.704;2024-03-22T13:44:25;101685.34;;;25.03;51.42
250;BME280;109;19.806;-70.704;2024-03-22T13:46:51;101681.44;;;25.23;51.45
250;BME280;109;19.806;-70.704;2024-03-22T13:49:18;101676.91;;;25.23;51.40
250;BME280;109;19.806;-70.704;2024-03-22T13:51:47;101682.56;;;25.19;51.83
250;BME280;109;19.806;-70.704;2024-03-22T13:54:14;101682.00;;;25.29;51.55
250;BME280;109;19.806;-70.704;2024-03-22T13:56:41;101687.44;;;25.43;51.50
250;BME280;109;19.806;-70.704;2024-03-22T13:59:07;101678.13;;;25.33;51.60
250;BME280;109;19.806;-70.704;2024-03-22T14:01:38;101671.81;;;25.49;51.57
250;BME280;109;19.806;-70.704;2024-03-22T14:04:07;101680.44;;;25.55;50.95
250;BME280;109;19.806;-70.704;2024-03-22T14:06:33;101680.03;;;25.61;51.43
250;BME280;109;19.806;-70.704;2024-03-22T14:09:00;101679.22;;;25.45;51.09
250;BME280;109;19.806;-70.704;2024-03-22T14:11:27;101676.78;;;25.26;50.87
250;BME280;109;19.806;-70.704;2024-03-22T14:13:59;101677.38;;;25.31;51.10
250;BME280;109;19.806;-70.704;2024-03-22T14:16:26;101682.56;;;25.34;50.73
250;BME280;109;19.806;-70.704;2024-03-22T14:18:52;101675.28;;;25.51;50.90
250;BME280;109;19.806;-70.704;2024-03-22T14:21:19;101672.09;;;25.88;50.75
250;BME280;109;19.806;-70.704;2024-03-22T14:23:50;101679.25;;;26.03;50.52
250;BME280;109;19.806;-70.704;2024-03-22T14:26:17;101673.59;;;26.22;50.29
250;BME280;109;19.806;-70.704;2024-03-22T14:28:44;101672.50;;;26.25;50.36
250;BME280;109;19.806;-70.704;2024-03-22T14:31:13;101670.25;;;26.45;50.04
250;BME280;109;19.806;-70.704;2024-03-22T14:33:40;101676.22;;;26.50;49.77
250;BME280;109;19.806;-70.704;2024-03-22T14:36:07;101677.66;;;26.56;49.73
250;BME280;109;19.806;-70.704;2024-03-22T14:38:35;101671.78;;;26.49;49.68
250;BME280;109;19.806;-70.704;2024-03-22T14:41:03;101669.84;;;26.51;49.84
250;BME280;109;19.806;-70.704;2024-03-22T14:43:30;101669.47;;;26.72;49.79
250;BME280;109;19.806;-70.704;2024-03-22T14:46:05;101667.00;;;26.81;49.93
250;BME280;109;19.806;-70.704;2024-03-22T14:48:31;101668.31;;;26.89;49.59
250;BME280;109;19.806;-70.704;2024-03-22T14:50:57;101664.53;;;26.91;49.63
250;BME280;109;19.806;-70.704;2024-03-22T14:53:24;101665.25;;;26.80;50.19
250;BME280;109;19.806;-70.704;2024-03-22T14:55:58;101668.59;;;26.98;49.84
250;BME280;109;19.806;-70.704;2024-03-22T14:58:28;101671.44;;;27.09;49.93
250;BME280;109;19.806;-70.704;2024-03-22T15:00:57;101668.28;;;27.15;49.56
250;BME280;109;19.806;-70.704;2024-03-22T15:03:24;101666.63;;;27.27;49.28
250;BME280;109;19.806;-70.704;2024-03-22T15:05:51;101655.94;;;27.26;48.97
250;BME280;109;19.806;-70.704;2024-03-22T15:08:18;101648.97;;;27.22;49.06
250;BME280;109;19.806;-70.704;2024-03-22T15:10:44;101646.81;;;27.27;49.19
250;BME280;109;19.806;-70.704;2024-03-22T15:13:12;101656.69;;;27.40;49.09
250;BME280;109;19.806;-70.704;2024-03-22T15:15:39;101654.75;;;27.55;48.54
250;BME280;109;19.806;-70.704;2024-03-22T15:18:07;101652.59;;;27.60;48.79
250;BME280;109;19.806;-70.704;2024-03-22T15:20:33;101656.41;;;27.70;48.35
250;BME280;109;19.806;-70.704;2024-03-22T15:23:01;101654.25;;;27.88;47.95
250;BME280;109;19.806;-70.704;2024-03-22T15:25:27;101652.06;;;27.93;47.62
250;BME280;109;19.806;-70.704;2024-03-22T15:27:54;101654.16;;;27.64;47.26
250;BME280;109;19.806;-70.704;2024-03-22T15:30:21;101649.72;;;27.63;47.56
250;BME280;109;19.806;-70.704;2024-03-22T15:32:48;101647.88;;;27.64;47.60
250;BME280;109;19.806;-70.704;2024-03-22T15:35:14;101640.91;;;27.60;47.40
250;BME280;109;19.806;-70.704;2024-03-22T15:37:41;101647.09;;;28.00;47.89
250;BME280;109;19.806;-70.704;2024-03-22T15:40:08;101640.16;;;28.45;47.77
250;BME280;109;19.806;-70.704;2024-03-22T15:42:36;101638.34;;;29.06;46.53
250;BME280;109;19.806;-70.704;2024-03-22T15:45:03;101641.41;;;28.41;47.15
250;BME280;109;19.806;-70.704;2024-03-22T15:47:31;101640.63;;;27.77;48.38
250;BME280;109;19.806;-70.704;2024-03-22T15:49:59;101632.91;;;27.83;48.55
250;BME280;109;19.806;-70.704;2024-03-22T15:52:26;101641.47;;;27.52;47.42
250;BME280;109;19.806;-70.704;2024-03-22T15:54:53;101635.19;;;27.51;47.90
250;BME280;109;19.806;-70.704;2024-03-22T15:57:20;101637.22;;;27.08;48.73
250;BME280;109;19.806;-70.704;2024-03-22T15:59:47;101623.72;;;26.55;49.12
250;BME280;109;19.806;-70.704;2024-03-22T16:02:14;101618.88;;;26.74;49.00
250;BME280;109;19.806;-70.704;2024-03-22T16:04:41;101630.66;;;27.12;48.89
250;BME280;109;19.806;-70.704;2024-03-22T16:07:11;101628.13;;;27.36;48.51
250;BME280;109;19.806;-70.704;2024-03-22T16:09:37;101633.28;;;27.39;48.26
250;BME280;109;19.806;-70.704;2024-03-22T16:12:04;101630.59;;;27.39;48.09
250;BME280;109;19.806;-70.704;2024-03-22T16:14:31;101627.25;;;27.48;48.11
250;BME280;109;19.806;-70.704;2024-03-22T16:16:57;101628.75;;;27.52;47.77
250;BME280;109;19.806;-70.704;2024-03-22T16:19:25;101622.38;;;27.41;48.12
250;BME280;109;19.806;-70.704;2024-03-22T16:21:51;101620.88;;;27.49;47.96
250;BME280;109;19.806;-70.704;2024-03-22T16:24:18;101618.84;;;27.66;47.35
250;BME280;109;19.806;-70.704;2024-03-22T16:26:47;101610.69;;;27.78;47.27
250;BME280;109;19.806;-70.704;2024-03-22T16:29:14;101599.47;;;27.72;46.70
250;BME280;109;19.806;-70.704;2024-03-22T16:31:40;101594.84;;;27.09;47.35
250;BME280;109;19.806;-70.704;2024-03-22T16:34:08;101592.97;;;27.74;46.91
250;BME280;109;19.806;-70.704;2024-03-22T16:36:34;101596.28;;;27.52;46.94
250;BME280;109;19.806;-70.704;2024-03-22T16:39:01;101588.44;;;26.97;47.31
250;BME280;109;19.806;-70.704;2024-03-22T16:41:30;101584.19;;;26.93;47.46
250;BME280;109;19.806;-70.704;2024-03-22T16:43:57;101585.69;;;26.58;49.28
250;BME280;109;19.806;-70.704;2024-03-22T16:46:23;101573.75;;;26.74;48.82
250;BME280;109;19.806;-70.704;2024-03-22T16:48:50;101567.31;;;27.02;48.67
250;BME280;109;19.806;-70.704;2024-03-22T16:51:17;101569.56;;;27.23;48.11
250;BME280;109;19.806;-70.704;2024-03-22T16:53:43;101557.00;;;27.47;47.27
250;BME280;109;19.806;-70.704;2024-03-22T16:56:10;101554.19;;;27.74;47.86
250;BME280;109;19.806;-70.704;2024-03-22T16:58:37;101551.09;;;28.16;47.10
250;BME280;109;19.806;-70.704;2024-03-22T17:01:04;101549.25;;;28.41;47.05
250;BME280;109;19.806;-70.704;2024-03-22T17:03:31;101552.00;;;28.52;46.39
250;BME280;109;19.806;-70.704;2024-03-22T17:05:57;101542.25;;;28.73;46.13
250;BME280;109;19.806;-70.704;2024-03-22T17:08:24;101541.41;;;28.84;46.01
250;BME280;109;19.806;-70.704;2024-03-22T17:10:50;101536.56;;;29.00;45.83
250;BME280;109;19.806;-70.704;2024-03-22T17:13:23;101534.41;;;28.81;46.04
250;BME280;109;19.806;-70.704;2024-03-22T17:15:50;101521.94;;;28.79;46.06
250;BME280;109;19.806;-70.704;2024-03-22T17:18:20;101520.59;;;28.25;46.02
250;BME280;109;19.806;-70.704;2024-03-22T17:20:46;101518.53;;;28.29;46.59
250;BME280;109;19.806;-70.704;2024-03-22T17:23:14;101517.66;;;28.29;46.48
250;BME280;109;19.806;-70.704;2024-03-22T17:25:40;101509.16;;;28.57;46.12
250;BME280;109;19.806;-70.704;2024-03-22T17:28:08;101507.28;;;28.81;46.03
250;BME280;109;19.806;-70.704;2024-03-22T17:30:34;101517.88;;;29.19;45.73
250;BME280;109;19.806;-70.704;2024-03-22T17:33:02;101522.66;;;29.05;45.29
250;BME280;109;19.806;-70.704;2024-03-22T17:35:29;101513.19;;;28.75;45.70
250;BME280;109;19.806;-70.704;2024-03-22T17:37:59;101502.19;;;28.42;46.58
250;BME280;109;19.806;-70.704;2024-03-22T17:40:25;101512.06;;;28.06;46.57
250;BME280;109;19.806;-70.704;2024-03-22T17:42:52;101507.66;;;27.18;46.76
250;BME280;109;19.806;-70.704;2024-03-22T17:45:18;101506.38;;;27.24;46.00
250;BME280;109;19.806;-70.704;2024-03-22T17:47:47;101496.59;;;26.96;46.16
250;BME280;109;19.806;-70.704;2024-03-22T17:50:14;101497.88;;;27.15;45.81
250;BME280;109;19.806;-70.704;2024-03-22T17:52:40;101489.88;;;27.14;45.45
250;BME280;109;19.806;-70.704;2024-03-22T17:55:07;101481.13;;;27.48;44.89
250;BME280;109;19.806;-70.704;2024-03-22T17:57:33;101481.78;;;27.65;44.05
250;BME280;109;19.806;-70.704;2024-03-22T18:00:00;101482.19;;;27.59;44.32
250;BME280;109;19.806;-70.704;2024-03-22T18:02:26;101472.16;;;27.10;44.97
250;BME280;109;19.806;-70.704;2024-03-22T18:04:53;101486.19;;;27.53;46.27
250;BME280;109;19.806;-70.704;2024-03-22T18:07:19;101482.44;;;27.17;46.84
250;BME280;109;19.806;-70.704;2024-03-22T18:09:46;101474.22;;;27.19;47.75
250;BME280;109;19.806;-70.704;2024-03-22T18:12:13;101475.06;;;26.81;48.27
250;BME280;109;19.806;-70.704;2024-03-22T18:14:40;101471.06;;;26.87;47.99
250;BME280;109;19.806;-70.704;2024-03-22T18:17:06;101469.59;;;26.69;48.59
250;BME280;109;19.806;-70.704;2024-03-22T18:19:33;101455.16;;;27.33;47.89
250;BME280;109;19.806;-70.704;2024-03-22T18:21:59;101455.06;;;26.84;47.18
250;BME280;109;19.806;-70.704;2024-03-22T18:24:26;101458.72;;;26.70;47.58
250;BME280;109;19.806;-70.704;2024-03-22T18:26:53;101456.19;;;26.67;47.68
250;BME280;109;19.806;-70.704;2024-03-22T18:29:19;101447.13;;;26.29;47.37
250;BME280;109;19.806;-70.704;2024-03-22T18:31:47;101444.44;;;27.06;47.17
250;BME280;109;19.806;-70.704;2024-03-22T18:34:13;101440.13;;;26.91;46.67
250;BME280;109;19.806;-70.704;2024-03-22T18:36:42;101442.22;;;27.26;46.28
250;BME280;109;19.806;-70.704;2024-03-22T18:39:09;101426.69;;;27.15;46.42
250;BME280;109;19.806;-70.704;2024-03-22T18:41:35;101423.25;;;26.75;46.86
250;BME280;109;19.806;-70.704;2024-03-22T18:44:01;101426.59;;;26.91;46.72
250;BME280;109;19.806;-70.704;2024-03-22T18:46:28;101427.72;;;26.49;47.05
250;BME280;109;19.806;-70.704;2024-03-22T18:48:54;101415.28;;;26.34;47.29
250;BME280;109;19.806;-70.704;2024-03-22T18:51:21;101412.38;;;26.62;47.03
250;BME280;109;19.806;-70.704;2024-03-22T18:53:48;101408.53;;;26.92;47.22
250;BME280;109;19.806;-70.704;2024-03-22T18:56:14;101399.78;;;26.88;46.21
250;BME280;109;19.806;-70.704;2024-03-22T18:58:42;101391.63;;;27.13;46.36
250;BME280;109;19.806;-70.704;2024-03-22T19:01:10;101397.31;;;27.23;45.98
250;BME280;109;19.806;-70.704;2024-03-22T19:03:36;101402.13;;;27.31;46.90
250;BME280;109;19.806;-70.704;2024-03-22T19:06:03;101385.50;;;27.11;46.99
250;BME280;109;19.806;-70.704;2024-03-22T19:08:29;101384.94;;;27.06;47.57
250;BME280;109;19.806;-70.704;2024-03-22T19:10:56;101387.75;;;27.05;46.89
250;BME280;109;19.806;-70.704;2024-03-22T19:13:22;101375.97;;;27.06;47.56
250;BME280;109;19.806;-70.704;2024-03-22T19:15:56;101369.59;;;27.07;46.85
250;BME280;109;19.806;-70.704;2024-03-22T19:18:22;101378.81;;;26.92;47.64
250;BME280;109;19.806;-70.704;2024-03-22T19:20:52;101362.56;;;27.53;46.58
250;BME280;109;19.806;-70.704;2024-03-22T19:23:18;101359.78;;;27.42;47.18
250;BME280;109;19.806;-70.704;2024-03-22T19:25:45;101348.88;;;27.68;46.59
250;BME280;109;19.806;-70.704;2024-03-22T19:28:11;101345.72;;;27.74;46.77
250;BME280;109;19.806;-70.704;2024-03-22T19:30:37;101342.72;;;28.13;46.10
250;BME280;109;19.806;-70.704;2024-03-22T19:33:05;101338.72;;;28.06;45.16
250;BME280;109;19.806;-70.704;2024-03-22T19:35:34;101327.25;;;28.38;44.61
250;BME280;109;19.806;-70.704;2024-03-22T19:38:01;101337.38;;;27.77;45.08
250;BME280;109;19.806;-70.704;2024-03-22T19:40:27;101328.75;;;28.42;45.12
250;BME280;109;19.806;-70.704;2024-03-22T19:42:54;101326.41;;;27.54;45.61
250;BME280;109;19.806;-70.704;2024-03-22T19:45:20;101323.50;;;27.08;46.10
250;BME280;109;19.806;-70.704;2024-03-22T19:47:47;101321.72;;;27.56;46.18
250;BME280;109;19.806;-70.704;2024-03-22T19:50:13;101323.25;;;27.84;45.97
250;BME280;109;19.806;-70.704;2024-03-22T19:52:39;101317.78;;;27.49;46.02
250;BME280;109;19.806;-70.704;2024-03-22T19:55:06;101316.84;;;27.38;46.42
250;BME280;109;19.806;-70.704;2024-03-22T19:57:33;101311.50;;;27.25;46.12
250;BME280;109;19.806;-70.704;2024-03-22T20:00:00;101306.63;;;27.05;46.35
250;BME280;109;19.806;-70.704;2024-03-22T20:02:26;101317.25;;;27.44;45.77
250;BME280;109;19.806;-70.704;2024-03-22T20:04:53;101307.78;;;27.63;45.65
250;BME280;109;19.806;-70.704;2024-03-22T20:07:19;101295.25;;;27.49;45.69
250;BME280;109;19.806;-70.704;2024-03-22T20:09:46;101309.59;;;27.62;46.12
250;BME280;109;19.806;-70.704;2024-03-22T20:12:12;101306.63;;;27.78;44.89
250;BME280;109;19.806;-70.704;2024-03-22T20:14:39;101317.94;;;27.35;44.72
250;BME280;109;19.806;-70.704;2024-03-22T20:17:05;101317.47;;;28.13;44.24
250;BME280;109;19.806;-70.704;2024-03-22T20:19:32;101321.03;;;28.13;43.30
250;BME280;109;19.806;-70.704;2024-03-22T20:21:58;101319.63;;;28.08;43.87
250;BME280;109;19.806;-70.704;2024-03-22T20:24:25;101323.53;;;28.28;43.88
250;BME280;109;19.806;-70.704;2024-03-22T20:26:51;101315.81;;;27.99;43.72
250;BME280;109;19.806;-70.704;2024-03-22T20:29:18;101315.94;;;27.74;43.40
250;BME280;109;19.806;-70.704;2024-03-22T20:31:44;101323.41;;;27.23;44.29
250;BME280;109;19.806;-70.704;2024-03-22T20:34:11;101319.94;;;27.08;43.51
250;BME280;109;19.806;-70.704;2024-03-22T20:36:37;101315.56;;;27.54;44.58
